Time;durP1;ratioP1;P1;durP2;ratioP2;P2;SDS_P1;SDS_P2;PMS_P1;PMS_P2;Temp;Humidity;BMP_temperature;BMP_pressure;BME280_temperature;BME280_humidity;BME280_pressure;Samples;Min_cycle;Max_cycle;Signal;HPM_P1;HPM_P2
2022/05/01 00:00:20;;;;;;;8.43;5.43;;;;;;;;;;5068107;28;20702;-75
2022/05/01 00:02:48;;;;;;;8.70;6.27;;;;;;;;;;5070593;28;20302;-76
2022/05/01 00:05:17;;;;;;;12.77;6.20;;;;;;;;;;5067825;28;20261;-75
2022/05/01 00:07:46;;;;;;;8.07;6.17;;;;;;;;;;5065186;28;20628;-76
2022/05/01 00:10:14;;;;;;;7.90;5.87;;;;;;;;;;5068348;28;20233;-76
2022/05/01 00:12:42;;;;;;;6.67;5.80;;;;;;;;;;5066160;28;20231;-75
2022/05/01 00:15:10;;;;;;;8.33;5.90;;;;;;;;;;5065966;28;20248;-73
2022/05/01 00:17:38;;;;;;;8.53;6.00;;;;;;;;;;5066271;28;20226;-72
2022/05/01 00:20:07;;;;;;;9.37;6.30;;;;;;;;;;5070606;28;20289;-73
2022/05/01 00:22:35;;;;;;;7.13;6.40;;;;;;;;;;5059373;28;20199;-72
2022/05/01 00:25:05;;;;;;;8.80;6.27;;;;;;;;;;5069718;28;20205;-73
2022/05/01 00:27:33;;;;;;;8.37;6.17;;;;;;;;;;5070587;28;20263;-72
2022/05/01 00:30:01;;;;;;;11.17;6.07;;;;;;;;;;5072809;28;20195;-73
2022/05/01 00:36:25;;;;;;;10.57;6.40;;;;;;;;;;5070869;28;20203;-73
2022/05/01 00:38:02;;;;;;;9.10;6.27;;;;;;;;;;5065593;28;20206;-74
2022/05/01 00:40:31;;;;;;;9.47;6.57;;;;;;;;;;5071100;28;20206;-73
2022/05/01 00:43:03;;;;;;;7.33;6.20;;;;;;;;;;5072081;28;20628;-74
2022/05/01 00:45:31;;;;;;;8.40;7.23;;;;;;;;;;5067953;28;20659;-74
2022/05/01 00:47:59;;;;;;;8.40;6.77;;;;;;;;;;5074042;28;20688;-75
2022/05/01 00:50:27;;;;;;;8.50;6.40;;;;;;;;;;5066879;28;20291;-72
2022/05/01 00:52:55;;;;;;;8.23;7.37;;;;;;;;;;5070710;28;20218;-73
2022/05/01 00:55:23;;;;;;;14.03;6.93;;;;;;;;;;5068300;28;20286;-73
2022/05/01 00:57:54;;;;;;;12.67;7.33;;;;;;;;;;5071082;28;20281;-74
2022/05/01 01:00:22;;;;;;;8.10;5.97;;;;;;;;;;5062555;28;20203;-74
2022/05/01 01:02:50;;;;;;;8.83;6.53;;;;;;;;;;5071651;28;20276;-75
2022/05/01 01:05:18;;;;;;;10.83;7.20;;;;;;;;;;5064515;28;20229;-74
2022/05/01 01:07:46;;;;;;;8.93;7.40;;;;;;;;;;5068209;28;20258;-75
2022/05/01 01:10:14;;;;;;;10.83;6.90;;;;;;;;;;5074626;28;20332;-74
2022/05/01 01:12:55;;;;;;;13.37;6.87;;;;;;;;;;5073819;28;20244;-74
2022/05/01 01:15:25;;;;;;;8.60;6.87;;;;;;;;;;5068731;28;20279;-74
2022/05/01 01:17:54;;;;;;;7.77;6.10;;;;;;;;;;5064041;28;20236;-72
2022/05/01 01:20:24;;;;;;;12.83;6.77;;;;;;;;;;5058978;28;20230;-73
2022/05/01 01:22:54;;;;;;;9.97;6.67;;;;;;;;;;5077124;28;20210;-73
2022/05/01 01:25:23;;;;;;;11.23;6.97;;;;;;;;;;5079111;28;20309;-75
2022/05/01 01:27:51;;;;;;;11.17;6.93;;;;;;;;;;5072139;28;20265;-75
2022/05/01 01:33:05;;;;;;;9.43;6.63;;;;;;;;;;5065803;28;20198;-75
2022/05/01 01:35:35;;;;;;;12.97;6.70;;;;;;;;;;5068866;28;20219;-73
2022/05/01 01:38:05;;;;;;;7.17;5.87;;;;;;;;;;5070942;28;20645;-75
2022/05/01 01:40:36;;;;;;;10.20;6.10;;;;;;;;;;5067369;28;20207;-75
2022/05/01 01:43:05;;;;;;;9.03;6.27;;;;;;;;;;5066055;28;20198;-74
2022/05/01 01:45:33;;;;;;;8.93;6.80;;;;;;;;;;5068075;28;20218;-74
2022/05/01 01:48:09;;;;;;;12.37;7.10;;;;;;;;;;5072081;28;20282;-72
2022/05/01 01:50:37;;;;;;;9.67;6.73;;;;;;;;;;5074094;28;20199;-74
2022/05/01 01:53:07;;;;;;;9.63;6.63;;;;;;;;;;5075116;28;20225;-75
2022/05/01 01:55:36;;;;;;;7.57;6.10;;;;;;;;;;5074078;28;20234;-72
2022/05/01 01:58:05;;;;;;;9.63;6.73;;;;;;;;;;5067694;28;20198;-73
2022/05/01 02:00:33;;;;;;;8.43;6.33;;;;;;;;;;5071588;28;20234;-73
2022/05/01 02:03:03;;;;;;;10.63;6.60;;;;;;;;;;5074442;28;20253;-73
2022/05/01 02:05:32;;;;;;;10.67;7.00;;;;;;;;;;5077569;28;20229;-73
2022/05/01 02:08:00;;;;;;;9.07;6.67;;;;;;;;;;5074108;28;20233;-73
2022/05/01 02:10:30;;;;;;;9.40;6.40;;;;;;;;;;5072392;28;20228;-73
2022/05/01 02:13:00;;;;;;;7.60;6.53;;;;;;;;;;5072943;28;20234;-74
2022/05/01 02:15:30;;;;;;;9.80;6.47;;;;;;;;;;5077037;28;20589;-74
2022/05/01 02:17:59;;;;;;;10.03;7.30;;;;;;;;;;5069057;28;20737;-74
2022/05/01 02:20:27;;;;;;;13.73;7.37;;;;;;;;;;5073935;28;20238;-74
2022/05/01 02:22:55;;;;;;;11.53;7.43;;;;;;;;;;5073102;28;20615;-74
2022/05/01 02:25:23;;;;;;;8.00;5.97;;;;;;;;;;5074648;28;20249;-74
2022/05/01 02:27:52;;;;;;;9.60;6.60;;;;;;;;;;5071054;28;20613;-75
2022/05/01 02:30:20;;;;;;;10.53;7.43;;;;;;;;;;5070456;28;20718;-74
2022/05/01 02:32:48;;;;;;;8.90;6.33;;;;;;;;;;5058034;28;20207;-74
2022/05/01 02:35:17;;;;;;;10.00;6.70;;;;;;;;;;5057652;28;20234;-74
2022/05/01 02:37:46;;;;;;;10.17;7.00;;;;;;;;;;5058089;28;20210;-74
2022/05/01 02:40:14;;;;;;;8.47;6.90;;;;;;;;;;5058033;28;20238;-74
2022/05/01 02:42:42;;;;;;;8.07;6.50;;;;;;;;;;5057096;28;20214;-74
2022/05/01 02:45:13;;;;;;;10.57;6.80;;;;;;;;;;5059606;28;20211;-74
2022/05/01 02:47:41;;;;;;;7.97;6.57;;;;;;;;;;5062897;28;20692;-74
2022/05/01 02:50:10;;;;;;;10.97;6.30;;;;;;;;;;5071951;28;20225;-74
2022/05/01 02:52:38;;;;;;;9.43;6.63;;;;;;;;;;5073855;28;20236;-73
2022/05/01 02:55:07;;;;;;;13.27;6.40;;;;;;;;;;5073526;28;20237;-74
2022/05/01 02:57:35;;;;;;;8.43;6.57;;;;;;;;;;5066131;28;20285;-73
2022/05/01 03:00:04;;;;;;;6.67;5.97;;;;;;;;;;5073266;28;20241;-74
2022/05/01 03:02:34;;;;;;;10.10;7.10;;;;;;;;;;5073795;28;20230;-74
2022/05/01 03:05:04;;;;;;;12.37;6.60;;;;;;;;;;5074551;28;20604;-74
2022/05/01 03:07:32;;;;;;;10.27;6.53;;;;;;;;;;5076104;28;20207;-74
2022/05/01 03:10:00;;;;;;;9.23;6.23;;;;;;;;;;5073689;28;20268;-74
2022/05/01 03:12:29;;;;;;;10.10;6.13;;;;;;;;;;5076165;28;20237;-74
2022/05/01 03:14:57;;;;;;;9.77;7.20;;;;;;;;;;5075832;28;20632;-74
2022/05/01 03:17:25;;;;;;;8.67;6.80;;;;;;;;;;5066525;28;20253;-74
2022/05/01 03:22:40;;;;;;;8.97;6.47;;;;;;;;;;5068256;28;20232;-74
2022/05/01 03:25:08;;;;;;;8.80;6.70;;;;;;;;;;5072941;28;20206;-74
2022/05/01 03:27:36;;;;;;;8.87;6.00;;;;;;;;;;5075740;28;20237;-74
2022/05/01 03:30:17;;;;;;;9.67;6.83;;;;;;;;;;5073031;28;20253;-74
2022/05/01 03:32:45;;;;;;;8.87;6.93;;;;;;;;;;5075948;28;20277;-75
2022/05/01 03:35:15;;;;;;;10.20;7.03;;;;;;;;;;5076310;28;20233;-74
2022/05/01 03:37:43;;;;;;;10.60;7.47;;;;;;;;;;5064726;28;20286;-75
2022/05/01 03:40:13;;;;;;;12.23;6.40;;;;;;;;;;5073104;28;20202;-74
2022/05/01 03:42:41;;;;;;;9.83;7.40;;;;;;;;;;5073064;28;20642;-74
2022/05/01 03:45:10;;;;;;;10.87;7.03;;;;;;;;;;5073748;28;20237;-75
2022/05/01 03:47:38;;;;;;;8.40;6.47;;;;;;;;;;5070669;28;20257;-74
2022/05/01 03:50:06;;;;;;;11.40;6.87;;;;;;;;;;5068133;28;20309;-74
2022/05/01 03:52:36;;;;;;;10.17;6.57;;;;;;;;;;5076202;28;20197;-74
2022/05/01 03:55:04;;;;;;;7.77;6.70;;;;;;;;;;5067802;28;20229;-75
2022/05/01 03:57:35;;;;;;;9.63;6.63;;;;;;;;;;5077325;28;20696;-75
2022/05/01 04:00:03;;;;;;;9.47;6.40;;;;;;;;;;5068444;28;20205;-74
2022/05/01 04:02:31;;;;;;;10.83;6.77;;;;;;;;;;5080333;28;20284;-74
2022/05/01 04:04:59;;;;;;;9.70;6.47;;;;;;;;;;5076537;28;20234;-74
2022/05/01 04:07:27;;;;;;;10.63;6.83;;;;;;;;;;5071066;28;20225;-73
2022/05/01 04:09:57;;;;;;;8.57;6.83;;;;;;;;;;5069436;28;20270;-74
2022/05/01 04:12:25;;;;;;;8.37;6.23;;;;;;;;;;5069993;28;20686;-74
2022/05/01 04:14:53;;;;;;;9.30;7.40;;;;;;;;;;5069812;28;20203;-74
2022/05/01 04:17:21;;;;;;;10.73;6.70;;;;;;;;;;5069299;28;20250;-74
2022/05/01 04:19:49;;;;;;;8.17;6.50;;;;;;;;;;5067270;28;20226;-74
2022/05/01 04:22:17;;;;;;;9.07;6.63;;;;;;;;;;5060791;28;20210;-74
2022/05/01 04:24:46;;;;;;;11.80;7.37;;;;;;;;;;5060342;28;20573;-73
2022/05/01 04:27:15;;;;;;;8.60;6.87;;;;;;;;;;5060646;28;20270;-73
2022/05/01 04:29:44;;;;;;;10.10;6.53;;;;;;;;;;5060266;28;20288;-74
2022/05/01 04:32:16;;;;;;;10.37;7.20;;;;;;;;;;5060415;28;20211;-74
2022/05/01 04:34:44;;;;;;;9.37;6.63;;;;;;;;;;5060354;28;20765;-74
2022/05/01 04:37:12;;;;;;;12.33;7.10;;;;;;;;;;5063626;28;20219;-73
2022/05/01 04:39:40;;;;;;;7.13;6.17;;;;;;;;;;5071602;28;20195;-74
2022/05/01 04:42:09;;;;;;;8.00;6.73;;;;;;;;;;5072075;28;20206;-73
2022/05/01 04:44:38;;;;;;;9.23;7.10;;;;;;;;;;5069303;28;20205;-73
2022/05/01 04:47:06;;;;;;;9.53;6.90;;;;;;;;;;5072019;28;20260;-74
2022/05/01 04:49:35;;;;;;;8.77;7.37;;;;;;;;;;5072207;28;20234;-74
2022/05/01 04:52:04;;;;;;;7.47;6.60;;;;;;;;;;5072323;28;20209;-74
2022/05/01 04:54:32;;;;;;;11.80;7.17;;;;;;;;;;5071043;28;20225;-74
2022/05/01 04:57:07;;;;;;;10.23;7.63;;;;;;;;;;5073399;28;20215;-75
2022/05/01 04:59:35;;;;;;;11.63;6.33;;;;;;;;;;5070930;28;20197;-77
2022/05/01 05:02:05;;;;;;;9.97;6.43;;;;;;;;;;5072235;28;20269;-74
2022/05/01 05:04:33;;;;;;;9.00;6.70;;;;;;;;;;5075997;28;20206;-75
2022/05/01 05:07:03;;;;;;;10.60;6.60;;;;;;;;;;5074196;28;20268;-75
2022/05/01 05:12:17;;;;;;;7.93;6.60;;;;;;;;;;5076018;28;20221;-74
2022/05/01 05:14:46;;;;;;;8.40;6.10;;;;;;;;;;5079048;28;20202;-74
2022/05/01 05:17:18;;;;;;;11.87;6.73;;;;;;;;;;5070327;28;20265;-73
2022/05/01 05:19:46;;;;;;;9.17;6.73;;;;;;;;;;5075392;28;20206;-73
2022/05/01 05:22:15;;;;;;;11.77;6.77;;;;;;;;;;5067697;28;20242;-73
2022/05/01 05:24:43;;;;;;;12.40;6.13;;;;;;;;;;5070101;28;20214;-72
2022/05/01 05:27:11;;;;;;;9.13;6.97;;;;;;;;;;5072136;28;20246;-72
2022/05/01 05:29:39;;;;;;;9.13;6.73;;;;;;;;;;5071046;28;20653;-71
2022/05/01 05:32:08;;;;;;;7.77;6.83;;;;;;;;;;5072115;28;20220;-72
2022/05/01 05:34:37;;;;;;;10.20;6.50;;;;;;;;;;5068247;28;20201;-72
2022/05/01 05:37:05;;;;;;;11.77;7.13;;;;;;;;;;5067872;28;20230;-72
2022/05/01 05:39:33;;;;;;;8.23;6.63;;;;;;;;;;5071079;28;20627;-72
2022/05/01 05:42:01;;;;;;;9.07;6.70;;;;;;;;;;5070647;28;20223;-72
2022/05/01 05:44:29;;;;;;;8.03;7.20;;;;;;;;;;5073380;28;20205;-72
2022/05/01 05:46:57;;;;;;;11.87;7.03;;;;;;;;;;5072956;28;20219;-72
2022/05/01 05:49:26;;;;;;;10.33;7.17;;;;;;;;;;5075444;28;20289;-72
2022/05/01 05:51:55;;;;;;;8.10;6.80;;;;;;;;;;5070892;28;20307;-71
2022/05/01 05:54:23;;;;;;;10.27;7.30;;;;;;;;;;5074956;28;20211;-72
2022/05/01 05:56:51;;;;;;;10.63;6.83;;;;;;;;;;5076562;28;20588;-72
2022/05/01 05:59:19;;;;;;;9.53;7.10;;;;;;;;;;5076336;28;20290;-73
2022/05/01 06:01:47;;;;;;;9.13;6.43;;;;;;;;;;5075304;28;20218;-72
2022/05/01 06:04:15;;;;;;;10.73;7.90;;;;;;;;;;5072315;28;20198;-72
2022/05/01 06:06:43;;;;;;;11.73;6.80;;;;;;;;;;5072358;28;20253;-67
2022/05/01 06:09:13;;;;;;;9.27;7.50;;;;;;;;;;5069130;28;20282;-73
2022/05/01 06:11:41;;;;;;;8.73;6.90;;;;;;;;;;5070608;28;20226;-72
2022/05/01 06:14:09;;;;;;;13.93;6.47;;;;;;;;;;5070459;28;20213;-72
2022/05/01 06:16:38;;;;;;;8.97;6.67;;;;;;;;;;5069485;28;20252;-71
2022/05/01 06:19:06;;;;;;;12.27;7.10;;;;;;;;;;5069388;28;20281;-73
2022/05/01 06:21:34;;;;;;;10.73;7.47;;;;;;;;;;5071194;28;20218;-72
2022/05/01 06:24:02;;;;;;;9.50;6.70;;;;;;;;;;5067046;28;20638;-72
2022/05/01 06:26:32;;;;;;;9.00;7.43;;;;;;;;;;5068617;28;20280;-73
2022/05/01 06:29:01;;;;;;;11.63;6.73;;;;;;;;;;5070581;28;20210;-72
2022/05/01 06:31:29;;;;;;;9.93;7.70;;;;;;;;;;5070189;28;20262;-73
2022/05/01 06:33:57;;;;;;;9.33;6.97;;;;;;;;;;5067689;28;20561;-72
2022/05/01 06:36:25;;;;;;;9.17;6.90;;;;;;;;;;5068892;28;20685;-72
2022/05/01 06:38:53;;;;;;;11.30;7.77;;;;;;;;;;5069932;28;20253;-72
2022/05/01 06:41:21;;;;;;;10.73;7.77;;;;;;;;;;5068486;28;20202;-72
2022/05/01 06:43:51;;;;;;;9.43;8.03;;;;;;;;;;5071754;28;20202;-72
2022/05/01 06:46:19;;;;;;;7.73;6.93;;;;;;;;;;5069368;28;20258;-73
2022/05/01 06:48:47;;;;;;;9.73;7.20;;;;;;;;;;5068237;28;20215;-75
2022/05/01 06:51:15;;;;;;;10.47;7.23;;;;;;;;;;5068846;28;20321;-75
2022/05/01 06:53:43;;;;;;;9.97;7.77;;;;;;;;;;5067638;28;20229;-74
2022/05/01 06:56:11;;;;;;;10.20;7.77;;;;;;;;;;5067056;28;20275;-74
2022/05/01 06:58:39;;;;;;;10.47;7.40;;;;;;;;;;5068546;28;20233;-74
2022/05/01 07:01:08;;;;;;;9.07;8.17;;;;;;;;;;5065853;28;20745;-74
2022/05/01 07:03:37;;;;;;;10.17;7.73;;;;;;;;;;5067779;28;20235;-74
2022/05/01 07:06:05;;;;;;;11.53;8.40;;;;;;;;;;5068061;28;20233;-75
2022/05/01 07:08:33;;;;;;;10.70;8.07;;;;;;;;;;5067297;28;20230;-76
2022/05/01 07:11:01;;;;;;;10.93;7.70;;;;;;;;;;5069247;28;20230;-75
2022/05/01 07:13:29;;;;;;;9.50;7.93;;;;;;;;;;5068923;28;20284;-76
2022/05/01 07:15:57;;;;;;;12.60;7.90;;;;;;;;;;5071167;28;20244;-75
2022/05/01 07:18:26;;;;;;;11.30;8.00;;;;;;;;;;5068763;28;20209;-75
2022/05/01 07:20:54;;;;;;;12.03;8.60;;;;;;;;;;5068389;28;20226;-75
2022/05/01 07:23:24;;;;;;;9.90;7.87;;;;;;;;;;5067552;28;20229;-74
2022/05/01 07:25:52;;;;;;;9.47;7.90;;;;;;;;;;5070691;28;20238;-73
2022/05/01 07:28:20;;;;;;;9.43;7.97;;;;;;;;;;5067089;28;20226;-74
2022/05/01 07:30:48;;;;;;;10.50;7.70;;;;;;;;;;5068960;28;20201;-74
2022/05/01 07:33:17;;;;;;;9.47;7.83;;;;;;;;;;5068361;28;20225;-73
2022/05/01 07:35:46;;;;;;;10.70;7.67;;;;;;;;;;5066645;28;20253;-74
2022/05/01 07:38:14;;;;;;;11.90;8.87;;;;;;;;;;5067781;28;20210;-71
2022/05/01 07:40:42;;;;;;;10.83;8.20;;;;;;;;;;5070031;28;20642;-72
2022/05/01 07:43:11;;;;;;;12.53;8.37;;;;;;;;;;5068847;28;20244;-72
2022/05/01 07:45:39;;;;;;;11.57;7.67;;;;;;;;;;5068032;28;20708;-73
2022/05/01 07:48:13;;;;;;;10.63;7.23;;;;;;;;;;5064716;28;20213;-74
2022/05/01 07:50:41;;;;;;;11.17;7.77;;;;;;;;;;5069171;28;20198;-72
2022/05/01 07:53:11;;;;;;;11.30;7.73;;;;;;;;;;5067373;28;20223;-69
2022/05/01 07:55:39;;;;;;;10.37;7.07;;;;;;;;;;5066790;28;20276;-70
2022/05/01 07:58:07;;;;;;;9.73;6.80;;;;;;;;;;5073297;28;20731;-73
2022/05/01 08:00:35;;;;;;;8.07;6.70;;;;;;;;;;5067704;28;20216;-73
2022/05/01 08:05:49;;;;;;;11.53;8.17;;;;;;;;;;5073014;28;20226;-72
2022/05/01 08:08:18;;;;;;;10.17;7.63;;;;;;;;;;5074126;28;20242;-72
2022/05/01 08:10:47;;;;;;;13.93;7.93;;;;;;;;;;5073090;28;20256;-73
2022/05/01 08:13:15;;;;;;;9.67;7.27;;;;;;;;;;5069893;28;20233;-71
2022/05/01 08:15:43;;;;;;;9.03;7.43;;;;;;;;;;5074520;28;20214;-72
2022/05/01 08:21:08;;;;;;;9.53;7.03;;;;;;;;;;5072432;28;20630;-73
2022/05/01 08:23:38;;;;;;;7.90;6.50;;;;;;;;;;5073251;28;20202;-73
2022/05/01 08:26:07;;;;;;;8.73;7.23;;;;;;;;;;5072394;28;20257;-74
2022/05/01 08:28:36;;;;;;;9.80;7.00;;;;;;;;;;5069823;28;20281;-76
2022/05/01 08:31:05;;;;;;;8.00;6.73;;;;;;;;;;5068613;28;20198;-77
2022/05/01 08:33:33;;;;;;;9.13;7.03;;;;;;;;;;5066208;28;20222;-75
2022/05/01 08:36:02;;;;;;;9.83;7.30;;;;;;;;;;5067814;28;20218;-76
2022/05/01 08:38:30;;;;;;;9.63;6.83;;;;;;;;;;5069979;28;20198;-76
2022/05/01 08:41:00;;;;;;;11.93;6.80;;;;;;;;;;5071280;28;20194;-76
2022/05/01 08:43:28;;;;;;;8.17;6.97;;;;;;;;;;5068871;28;20230;-76
2022/05/01 08:46:13;;;;;;;10.30;7.20;;;;;;;;;;5075048;28;20225;-76
2022/05/01 08:48:45;;;;;;;8.73;6.90;;;;;;;;;;5069877;28;20559;-76
2022/05/01 08:51:14;;;;;;;11.30;7.10;;;;;;;;;;5071653;28;20203;-74
2022/05/01 08:53:42;;;;;;;9.93;6.80;;;;;;;;;;5073384;28;20218;-74
2022/05/01 08:56:12;;;;;;;8.93;6.60;;;;;;;;;;5070914;28;20223;-76
2022/05/01 08:58:41;;;;;;;9.37;7.03;;;;;;;;;;5072171;28;20203;-74
2022/05/01 09:01:09;;;;;;;8.03;7.17;;;;;;;;;;5069360;28;20202;-74
2022/05/01 09:03:39;;;;;;;8.70;6.70;;;;;;;;;;5074260;28;20767;-74
2022/05/01 09:06:07;;;;;;;10.30;7.53;;;;;;;;;;5069792;28;20272;-73
2022/05/01 09:08:37;;;;;;;10.33;7.43;;;;;;;;;;5074104;28;20283;-73
2022/05/01 09:13:49;;;;;;;8.73;5.87;;;;;;;;;;5073807;28;20245;-73
2022/05/01 09:16:17;;;;;;;6.00;5.40;;;;;;;;;;5070327;28;20226;-73
2022/05/01 09:18:45;;;;;;;9.27;6.03;;;;;;;;;;5071153;28;20206;-74
2022/05/01 09:21:14;;;;;;;6.97;5.73;;;;;;;;;;5070093;28;20234;-73
2022/05/01 09:23:43;;;;;;;9.80;6.40;;;;;;;;;;5071573;28;20199;-73
2022/05/01 09:26:11;;;;;;;8.50;6.03;;;;;;;;;;5067456;28;20317;-73
2022/05/01 09:28:48;;;;;;;7.23;5.57;;;;;;;;;;5072486;28;20233;-75
2022/05/01 09:31:17;;;;;;;10.63;6.47;;;;;;;;;;5072620;28;20244;-75
2022/05/01 09:33:45;;;;;;;9.23;6.20;;;;;;;;;;5070312;28;20237;-76
2022/05/01 09:36:28;;;;;;;8.07;5.60;;;;;;;;;;5069201;28;20218;-75
2022/05/01 09:39:02;;;;;;;10.40;7.00;;;;;;;;;;5068651;28;20198;-75
2022/05/01 09:41:30;;;;;;;9.90;6.27;;;;;;;;;;5068207;28;20229;-76
2022/05/01 09:44:00;;;;;;;10.30;6.00;;;;;;;;;;5071322;28;20198;-75
2022/05/01 09:46:32;;;;;;;6.50;5.57;;;;;;;;;;5069371;28;20268;-74
2022/05/01 09:49:01;;;;;;;6.23;5.27;;;;;;;;;;5072762;28;20203;-75
2022/05/01 09:51:29;;;;;;;6.50;5.30;;;;;;;;;;5071024;28;20233;-75
2022/05/01 09:53:58;;;;;;;6.93;5.83;;;;;;;;;;5072835;28;21069;-75
2022/05/01 09:56:26;;;;;;;8.00;5.80;;;;;;;;;;5068614;28;20222;-74
2022/05/01 09:59:00;;;;;;;5.67;4.90;;;;;;;;;;5071069;28;20298;-76
2022/05/01 10:01:30;;;;;;;6.97;4.93;;;;;;;;;;5070079;28;20256;-74
2022/05/01 10:04:00;;;;;;;5.60;5.10;;;;;;;;;;5073507;28;20230;-72
2022/05/01 10:06:31;;;;;;;6.50;5.50;;;;;;;;;;5071134;28;20305;-72
2022/05/01 10:09:00;;;;;;;5.63;4.43;;;;;;;;;;5071948;28;20614;-74
2022/05/01 10:11:30;;;;;;;6.20;5.23;;;;;;;;;;5072099;28;20728;-73
2022/05/01 10:13:58;;;;;;;6.27;4.93;;;;;;;;;;5070441;28;20231;-73
2022/05/01 10:16:26;;;;;;;7.13;4.70;;;;;;;;;;5070406;28;20281;-72
2022/05/01 10:18:59;;;;;;;4.83;4.33;;;;;;;;;;5065162;28;20203;-72
2022/05/01 10:21:48;;;;;;;5.53;4.30;;;;;;;;;;5066065;28;20564;-72
2022/05/01 10:24:16;;;;;;;5.00;4.40;;;;;;;;;;5074691;28;20202;-73
2022/05/01 10:26:48;;;;;;;5.17;4.00;;;;;;;;;;5075313;28;20230;-72
2022/05/01 10:29:31;;;;;;;6.47;4.33;;;;;;;;;;5068881;28;20198;-75
2022/05/01 10:32:21;;;;;;;5.00;3.97;;;;;;;;;;5067372;28;20198;-76
2022/05/01 10:35:19;;;;;;;4.63;4.17;;;;;;;;;;5061670;28;20670;-73
2022/05/01 10:38:09;;;;;;;5.17;4.00;;;;;;;;;;5069850;28;20238;-76
2022/05/01 10:40:41;;;;;;;8.00;4.27;;;;;;;;;;5070403;28;20219;-74
2022/05/01 10:43:25;;;;;;;4.53;3.70;;;;;;;;;;5061732;28;20610;-75
2022/05/01 10:45:54;;;;;;;4.80;3.63;;;;;;;;;;5067616;28;20254;-76
2022/05/01 10:48:36;;;;;;;4.93;3.87;;;;;;;;;;5064687;28;20293;-75
2022/05/01 10:51:22;;;;;;;5.67;3.53;;;;;;;;;;5070359;28;20222;-76
2022/05/01 10:54:05;;;;;;;4.27;3.97;;;;;;;;;;5066313;28;20261;-75
2022/05/01 10:56:35;;;;;;;6.03;4.00;;;;;;;;;;5065296;28;20682;-76
2022/05/01 10:59:38;;;;;;;4.87;3.87;;;;;;;;;;5067906;28;20199;-75
2022/05/01 11:02:20;;;;;;;6.83;4.00;;;;;;;;;;5063675;28;20238;-73
2022/05/01 11:04:49;;;;;;;5.67;4.23;;;;;;;;;;5066861;28;20222;-78
2022/05/01 11:07:18;;;;;;;4.63;3.53;;;;;;;;;;5068028;28;20246;-74
2022/05/01 11:09:47;;;;;;;5.17;3.70;;;;;;;;;;5065552;28;20209;-76
2022/05/01 11:15:49;;;;;;;4.30;3.70;;;;;;;;;;5065301;28;20214;-75
2022/05/01 11:18:27;;;;;;;4.57;3.73;;;;;;;;;;5067493;28;20199;-75
2022/05/01 11:24:38;;;;;;;5.93;3.90;;;;;;;;;;5068602;28;20189;-77
2022/05/01 11:27:13;;;;;;;5.20;4.53;;;;;;;;;;5064524;28;20246;-75
2022/05/01 11:29:56;;;;;;;5.10;3.77;;;;;;;;;;5066932;28;20281;-76
2022/05/01 11:32:26;;;;;;;5.30;3.77;;;;;;;;;;5064782;28;20265;-74
2022/05/01 11:34:54;;;;;;;6.37;4.93;;;;;;;;;;5062721;28;20214;-76
2022/05/01 11:37:23;;;;;;;6.17;4.90;;;;;;;;;;5061963;28;20234;-73
2022/05/01 11:40:21;;;;;;;6.90;3.97;;;;;;;;;;5066605;28;20291;-73
2022/05/01 11:42:50;;;;;;;5.33;3.70;;;;;;;;;;5060962;28;20754;-75
2022/05/01 11:45:19;;;;;;;5.50;4.57;;;;;;;;;;5070432;28;20803;-77
2022/05/01 11:47:52;;;;;;;10.13;4.37;;;;;;;;;;5072937;28;20234;-76
2022/05/01 11:50:21;;;;;;;6.07;4.10;;;;;;;;;;5068985;28;20213;-74
2022/05/01 11:52:51;;;;;;;7.50;4.60;;;;;;;;;;5070699;28;20630;-75
2022/05/01 11:55:20;;;;;;;4.20;3.80;;;;;;;;;;5068285;28;20254;-74
2022/05/01 12:03:38;;;;;;;6.40;3.70;;;;;;;;;;5064440;28;20302;-74
2022/05/01 12:06:07;;;;;;;6.57;4.43;;;;;;;;;;5068019;28;20314;-74
2022/05/01 12:08:48;;;;;;;3.93;3.10;;;;;;;;;;5064274;28;20640;-75
2022/05/01 12:11:30;;;;;;;8.13;4.33;;;;;;;;;;5065407;28;20226;-76
2022/05/01 12:14:05;;;;;;;5.53;4.20;;;;;;;;;;5063482;28;20249;-75
2022/05/01 12:16:33;;;;;;;5.33;4.33;;;;;;;;;;5065421;28;20308;-74
2022/05/01 12:19:04;;;;;;;6.50;3.80;;;;;;;;;;5073263;28;20214;-74
2022/05/01 12:21:33;;;;;;;3.77;3.33;;;;;;;;;;5070672;28;20229;-74
2022/05/01 12:24:04;;;;;;;5.60;3.93;;;;;;;;;;5071461;28;20626;-75
2022/05/01 12:26:34;;;;;;;5.60;4.30;;;;;;;;;;5071039;28;20250;-74
2022/05/01 12:29:02;;;;;;;5.50;4.23;;;;;;;;;;5071428;28;20206;-74
2022/05/01 12:31:30;;;;;;;4.87;3.87;;;;;;;;;;5071134;28;20226;-75
2022/05/01 12:34:00;;;;;;;5.17;4.40;;;;;;;;;;5072051;28;20279;-74
2022/05/01 12:36:29;;;;;;;3.50;3.20;;;;;;;;;;5065513;28;20281;-74
2022/05/01 12:39:01;;;;;;;5.00;4.00;;;;;;;;;;5063782;28;20282;-75
2022/05/01 12:44:34;;;;;;;5.27;3.20;;;;;;;;;;5072403;28;20198;-74
2022/05/01 12:47:03;;;;;;;4.20;3.20;;;;;;;;;;5064100;28;20222;-74
2022/05/01 12:49:31;;;;;;;4.13;2.87;;;;;;;;;;5070520;28;20260;-74
2022/05/01 12:52:01;;;;;;;6.20;3.07;;;;;;;;;;5061664;28;20199;-74
2022/05/01 12:54:29;;;;;;;3.53;3.23;;;;;;;;;;5069474;28;20261;-75
2022/05/01 12:56:57;;;;;;;5.40;3.80;;;;;;;;;;5068915;28;20254;-76
2022/05/01 12:59:27;;;;;;;4.10;3.10;;;;;;;;;;5072644;28;20260;-77
2022/05/01 13:01:57;;;;;;;6.13;4.03;;;;;;;;;;5072213;28;20249;-77
2022/05/01 13:04:26;;;;;;;5.47;3.23;;;;;;;;;;5067959;28;20598;-76
2022/05/01 13:06:54;;;;;;;7.93;3.30;;;;;;;;;;5068474;28;20218;-76
2022/05/01 13:09:24;;;;;;;5.93;3.40;;;;;;;;;;5065987;28;20751;-76
2022/05/01 13:11:59;;;;;;;4.27;3.63;;;;;;;;;;5064741;28;20250;-76
2022/05/01 13:14:30;;;;;;;3.63;3.30;;;;;;;;;;5071055;28;20268;-77
2022/05/01 13:17:07;;;;;;;4.40;2.97;;;;;;;;;;5071447;28;20305;-77
2022/05/01 13:19:36;;;;;;;4.00;3.00;;;;;;;;;;5069491;28;20237;-76
2022/05/01 13:22:05;;;;;;;3.30;2.70;;;;;;;;;;5066972;28;20222;-77
2022/05/01 13:24:35;;;;;;;4.60;2.90;;;;;;;;;;5064138;28;20681;-77
2022/05/01 13:27:04;;;;;;;5.10;3.50;;;;;;;;;;5073278;28;20249;-77
2022/05/01 13:29:32;;;;;;;8.37;3.30;;;;;;;;;;5064889;28;20203;-77
2022/05/01 13:32:03;;;;;;;3.67;3.33;;;;;;;;;;5072660;28;20239;-77
2022/05/01 13:34:31;;;;;;;3.57;3.27;;;;;;;;;;5071079;28;20218;-77
2022/05/01 13:37:00;;;;;;;5.47;3.00;;;;;;;;;;5068738;28;20653;-77
2022/05/01 13:44:44;;;;;;;5.57;3.10;;;;;;;;;;5068503;28;20217;-77
2022/05/01 13:45:05;;;;;;;3.20;2.90;;;;;;;;;;5068856;28;20278;-77
2022/05/01 13:47:33;;;;;;;3.10;2.80;;;;;;;;;;5067811;28;20271;-77
2022/05/01 13:50:01;;;;;;;6.13;3.03;;;;;;;;;;5067997;28;20701;-77
2022/05/01 13:52:29;;;;;;;3.07;2.77;;;;;;;;;;5061204;28;20693;-76
2022/05/01 13:54:57;;;;;;;7.43;2.93;;;;;;;;;;5066779;28;20329;-77
2022/05/01 13:57:27;;;;;;;3.37;2.57;;;;;;;;;;5063733;28;20745;-77
2022/05/01 13:59:56;;;;;;;4.03;2.93;;;;;;;;;;5065818;28;20234;-77
2022/05/01 14:02:24;;;;;;;5.47;2.83;;;;;;;;;;5070915;28;20288;-76
2022/05/01 14:04:52;;;;;;;5.53;2.93;;;;;;;;;;5065381;28;20194;-77
2022/05/01 14:07:20;;;;;;;3.10;2.70;;;;;;;;;;5062711;28;20322;-76
2022/05/01 14:09:48;;;;;;;3.10;2.80;;;;;;;;;;5070414;28;20624;-77
2022/05/01 14:12:17;;;;;;;6.20;3.00;;;;;;;;;;5064906;28;20580;-77
2022/05/01 14:14:47;;;;;;;5.30;2.40;;;;;;;;;;5069711;28;20258;-77
2022/05/01 14:17:15;;;;;;;2.53;2.33;;;;;;;;;;5069290;28;20312;-77
2022/05/01 14:19:44;;;;;;;4.33;2.80;;;;;;;;;;5063705;28;20236;-77
2022/05/01 14:22:14;;;;;;;4.80;3.00;;;;;;;;;;5064819;28;20221;-77
2022/05/01 14:24:48;;;;;;;3.37;2.37;;;;;;;;;;5069390;28;20244;-77
2022/05/01 14:27:17;;;;;;;3.50;2.90;;;;;;;;;;5066058;28;20226;-77
2022/05/01 14:29:45;;;;;;;2.80;2.60;;;;;;;;;;5068804;28;20248;-77
2022/05/01 14:32:18;;;;;;;2.33;2.13;;;;;;;;;;5069775;28;20230;-77
2022/05/01 14:34:48;;;;;;;4.13;3.20;;;;;;;;;;5062043;28;20663;-77
2022/05/01 14:37:21;;;;;;;5.07;2.80;;;;;;;;;;5064662;28;20253;-76
2022/05/01 14:39:51;;;;;;;5.93;2.97;;;;;;;;;;5063948;28;20647;-76
2022/05/01 14:42:19;;;;;;;4.80;3.17;;;;;;;;;;5065291;28;20258;-74
2022/05/01 14:44:56;;;;;;;3.23;2.70;;;;;;;;;;5069104;28;20226;-74
2022/05/01 14:47:28;;;;;;;5.83;2.83;;;;;;;;;;5065092;28;20262;-76
2022/05/01 14:49:59;;;;;;;3.03;2.63;;;;;;;;;;5068582;28;20314;-76
2022/05/01 14:52:28;;;;;;;3.00;2.80;;;;;;;;;;5067493;28;20234;-77
2022/05/01 14:54:57;;;;;;;3.47;2.20;;;;;;;;;;5070070;28;20273;-76
2022/05/01 14:57:26;;;;;;;5.17;2.60;;;;;;;;;;5075384;28;20260;-75
2022/05/01 15:08:17;;;;;;;3.27;2.60;;;;;;;;;;5069621;28;20241;-75
2022/05/01 15:10:45;;;;;;;4.27;3.00;;;;;;;;;;5069042;28;20242;-75
2022/05/01 15:13:14;;;;;;;2.70;2.50;;;;;;;;;;5063397;28;20320;-75
2022/05/01 15:15:47;;;;;;;3.83;2.93;;;;;;;;;;5066501;28;20264;-77
2022/05/01 15:18:19;;;;;;;5.53;2.70;;;;;;;;;;5067230;28;20237;-77
2022/05/01 15:20:52;;;;;;;3.53;2.87;;;;;;;;;;5067781;28;20780;-75
2022/05/01 15:23:25;;;;;;;2.40;2.20;;;;;;;;;;5068222;28;20285;-75
2022/05/01 15:25:55;;;;;;;3.63;2.77;;;;;;;;;;5058714;28;20254;-75
2022/05/01 15:28:23;;;;;;;3.23;2.43;;;;;;;;;;5061053;28;20233;-77
2022/05/01 15:30:52;;;;;;;3.27;2.63;;;;;;;;;;5068745;28;20233;-77
2022/05/01 15:36:09;;;;;;;4.20;2.10;;;;;;;;;;5057836;28;20273;-77
2022/05/01 15:38:39;;;;;;;4.90;3.27;;;;;;;;;;5071164;28;20293;-76
2022/05/01 15:41:17;;;;;;;5.20;3.50;;;;;;;;;;5074506;28;20285;-77
2022/05/01 15:43:45;;;;;;;3.60;2.90;;;;;;;;;;5073631;28;20724;-77
2022/05/01 15:46:28;;;;;;;5.80;3.80;;;;;;;;;;5058690;28;20718;-74